Time;durP1;ratioP1;P1;durP2;ratioP2;P2;SDS_P1;SDS_P2;PMS_P1;PMS_P2;Temp;Humidity;BMP_temperature;BMP_pressure;BME280_temperature;BME280_humidity;BME280_pressure;Samples;Min_cycle;Max_cycle;Signal;HPM_P1;HPM_P2
2023/06/07 00:01:05;;;;;;;14.23;7.00;;;13.30;99.90;;;;;;5087873;28;20061;-70
2023/06/07 00:03:32;;;;;;;11.35;7.22;;;13.30;99.90;;;;;;5094143;28;20055;-70
2023/06/07 00:06:00;;;;;;;13.88;7.75;;;13.30;99.90;;;;;;5075506;28;20047;-71
2023/06/07 00:08:29;;;;;;;15.38;7.45;;;13.30;99.90;;;;;;5095891;28;20054;-70
2023/06/07 00:10:56;;;;;;;12.70;6.93;;;13.30;99.90;;;;;;5073285;28;20051;-71
2023/06/07 00:13:21;;;;;;;15.45;7.20;;;13.30;99.90;;;;;;5092841;28;20074;-70
2023/06/07 00:15:47;;;;;;;12.80;7.50;;;13.30;99.90;;;;;;5086480;28;20155;-71
2023/06/07 00:18:15;;;;;;;12.25;7.22;;;13.30;99.90;;;;;;5064582;28;20553;-70
2023/06/07 00:20:45;;;;;;;12.93;7.13;;;13.30;99.90;;;;;;5090161;28;20035;-70
2023/06/07 00:23:13;;;;;;;17.58;8.20;;;13.30;99.90;;;;;;5079340;28;20051;-71
2023/06/07 00:25:39;;;;;;;14.88;7.85;;;13.20;99.90;;;;;;5098324;28;20070;-70
2023/06/07 00:28:05;;;;;;;13.68;7.43;;;13.10;99.90;;;;;;5111626;27;20561;-69
2023/06/07 00:30:30;;;;;;;13.15;7.03;;;13.10;99.90;;;;;;5070403;28;20126;-70
2023/06/07 00:32:56;;;;;;;15.40;7.60;;;13.10;99.90;;;;;;5067818;28;20048;-69
2023/06/07 00:35:22;;;;;;;16.63;7.60;;;13.10;99.90;;;;;;5087632;28;20039;-70
2023/06/07 00:37:47;;;;;;;17.63;7.57;;;13.00;99.90;;;;;;5092293;28;20044;-71
2023/06/07 00:40:16;;;;;;;13.23;7.50;;;13.00;99.90;;;;;;5076271;28;20054;-70
2023/06/07 00:42:42;;;;;;;15.52;6.95;;;13.00;99.90;;;;;;5091022;28;20406;-69
2023/06/07 00:45:08;;;;;;;16.92;7.38;;;13.00;99.90;;;;;;5097108;28;20035;-70
2023/06/07 00:47:37;;;;;;;17.00;7.38;;;13.00;99.90;;;;;;5093668;28;20137;-70
2023/06/07 00:50:04;;;;;;;14.45;7.13;;;12.90;99.90;;;;;;5095924;28;20116;-70
2023/06/07 00:52:30;;;;;;;12.07;7.50;;;12.90;99.90;;;;;;5096906;28;20051;-70
2023/06/07 00:54:58;;;;;;;16.08;7.20;;;13.00;99.90;;;;;;5097221;28;20486;-69
2023/06/07 00:57:23;;;;;;;16.33;7.70;;;12.90;99.90;;;;;;5093309;28;20494;-70
2023/06/07 00:59:49;;;;;;;12.30;7.10;;;12.90;99.90;;;;;;5082176;28;20055;-70
2023/06/07 01:02:15;;;;;;;13.65;8.15;;;12.90;99.90;;;;;;5097447;28;20038;-69
2023/06/07 01:04:42;;;;;;;16.73;7.90;;;12.80;99.90;;;;;;5077011;28;20123;-70
2023/06/07 01:07:08;;;;;;;13.90;7.32;;;12.70;99.90;;;;;;5099847;28;20463;-71
2023/06/07 01:09:35;;;;;;;15.45;8.10;;;12.60;99.90;;;;;;5090716;28;20126;-70
2023/06/07 01:12:03;;;;;;;16.08;8.73;;;12.50;99.90;;;;;;5093581;28;20444;-70
2023/06/07 01:14:30;;;;;;;15.57;8.48;;;12.50;99.90;;;;;;5072796;28;20047;-70
2023/06/07 01:16:57;;;;;;;15.20;8.52;;;12.50;99.90;;;;;;5072545;28;20051;-70
2023/06/07 01:19:27;;;;;;;13.80;7.27;;;12.40;99.90;;;;;;5096113;28;20088;-70
2023/06/07 01:22:00;;;;;;;17.25;8.20;;;12.40;99.90;;;;;;5097049;28;20059;-70
2023/06/07 01:24:28;;;;;;;16.60;8.52;;;12.50;99.90;;;;;;5075250;28;20048;-70
2023/06/07 01:26:57;;;;;;;17.63;8.38;;;12.50;99.90;;;;;;5094161;28;20054;-69
2023/06/07 01:29:24;;;;;;;14.57;7.43;;;12.40;99.90;;;;;;5069470;28;20047;-70
2023/06/07 01:31:52;;;;;;;14.23;7.55;;;12.40;99.90;;;;;;5078363;28;20054;-70
2023/06/07 01:34:20;;;;;;;14.48;7.68;;;12.40;99.90;;;;;;5096819;28;20048;-71
2023/06/07 01:36:47;;;;;;;19.50;8.45;;;12.40;99.90;;;;;;5091115;28;20126;-69
2023/06/07 01:39:14;;;;;;;;;;;12.40;99.90;;;;;;5093183;28;20134;-70
2023/06/07 01:41:41;;;;;;;16.42;7.78;;;12.30;99.90;;;;;;5097413;28;19951;-70
2023/06/07 01:44:08;;;;;;;;;;;12.30;99.90;;;;;;5087980;28;20052;-71
2023/06/07 01:46:34;;;;;;;15.50;8.10;;;12.30;99.90;;;;;;5099124;28;20349;-71
2023/06/07 01:49:01;;;;;;;18.33;8.48;;;12.30;99.90;;;;;;5106270;27;20101;-71
2023/06/07 01:51:27;;;;;;;12.95;7.63;;;12.30;99.90;;;;;;5089851;28;20140;-72
2023/06/07 01:53:53;;;;;;;15.93;8.35;;;12.30;99.90;;;;;;5074066;28;20465;-72
2023/06/07 01:56:42;;;;;;;18.70;8.35;;;12.20;99.90;;;;;;5093979;28;20530;-71
2023/06/07 01:59:44;;;;;;;14.77;8.00;;;12.20;99.90;;;;;;5066463;28;20178;-71
2023/06/07 02:02:27;;;;;;;16.80;8.65;;;12.10;99.90;;;;;;5064906;28;20074;-72
2023/06/07 02:05:01;;;;;;;19.23;8.93;;;12.10;99.90;;;;;;5091217;28;20410;-71
2023/06/07 02:07:30;;;;;;;20.27;9.60;;;12.10;99.90;;;;;;5068817;28;20513;-70
2023/06/07 02:10:00;;;;;;;20.00;8.95;;;12.10;99.90;;;;;;5095961;28;20510;-70
2023/06/07 02:12:27;;;;;;;18.67;8.93;;;12.10;99.90;;;;;;5074005;28;20047;-70
2023/06/07 02:14:53;;;;;;;16.65;8.60;;;12.10;99.90;;;;;;5074129;28;20059;-70
2023/06/07 02:17:19;;;;;;;15.70;8.20;;;12.10;99.90;;;;;;5067736;28;20052;-71
2023/06/07 02:19:46;;;;;;;14.07;8.77;;;12.10;99.90;;;;;;5064336;28;20051;-73
2023/06/07 02:22:13;;;;;;;20.65;9.60;;;12.10;99.90;;;;;;5088737;28;20066;-72
2023/06/07 02:24:40;;;;;;;16.17;8.85;;;12.00;99.90;;;;;;5065853;28;20127;-72
2023/06/07 02:27:08;;;;;;;16.58;8.93;;;12.00;99.90;;;;;;5064851;28;20051;-71
2023/06/07 02:29:33;;;;;;;19.17;9.00;;;12.00;99.90;;;;;;5062597;28;20132;-70
2023/06/07 02:32:00;;;;;;;17.20;8.63;;;12.00;99.90;;;;;;5094952;27;20039;-71
2023/06/07 02:34:29;;;;;;;14.82;8.45;;;12.00;99.90;;;;;;5075028;28;20563;-71
2023/06/07 02:36:55;;;;;;;17.40;8.63;;;12.00;99.90;;;;;;5076638;28;20071;-70
2023/06/07 02:39:21;;;;;;;16.75;8.88;;;12.10;99.90;;;;;;5067447;28;20920;-69
2023/06/07 02:41:47;;;;;;;18.00;8.65;;;12.10;99.90;;;;;;5067134;28;20043;-71
2023/06/07 02:44:13;;;;;;;16.02;8.77;;;12.10;99.90;;;;;;5096102;28;20043;-72
2023/06/07 02:46:38;;;;;;;19.25;8.98;;;12.10;99.90;;;;;;5071155;28;20046;-70
2023/06/07 02:49:04;;;;;;;18.85;9.60;;;12.10;99.90;;;;;;5094278;28;20063;-71
2023/06/07 02:51:29;;;;;;;19.65;9.32;;;12.10;99.90;;;;;;5087442;28;20055;-71
2023/06/07 02:53:56;;;;;;;20.10;9.73;;;12.10;99.90;;;;;;5084314;28;20044;-71
2023/06/07 02:56:23;;;;;;;17.55;9.20;;;12.10;99.90;;;;;;5108352;27;20047;-70
2023/06/07 02:58:49;;;;;;;16.73;9.77;;;12.00;99.90;;;;;;5072028;28;20517;-71
2023/06/07 03:01:14;;;;;;;20.63;9.90;;;12.00;99.90;;;;;;5069085;28;20047;-70
2023/06/07 03:03:42;;;;;;;16.92;10.60;;;11.90;99.90;;;;;;5085968;28;20045;-70
2023/06/07 03:06:09;;;;;;;21.10;10.32;;;11.80;99.90;;;;;;5075949;28;20123;-71
2023/06/07 03:08:35;;;;;;;19.42;10.75;;;11.80;99.90;;;;;;5074262;28;20587;-70
2023/06/07 03:11:01;;;;;;;16.85;10.50;;;11.70;99.90;;;;;;5070424;28;20059;-70
2023/06/07 03:13:27;;;;;;;18.40;10.48;;;11.70;99.90;;;;;;5100679;27;20047;-70
2023/06/07 03:15:53;;;;;;;18.90;10.95;;;11.70;99.90;;;;;;5079523;28;20043;-70
2023/06/07 03:18:19;;;;;;;22.17;10.73;;;11.80;99.90;;;;;;5092268;28;20050;-70
2023/06/07 03:20:45;;;;;;;20.48;10.90;;;11.80;99.90;;;;;;5070222;28;20407;-71
2023/06/07 03:23:11;;;;;;;20.65;10.70;;;11.80;99.90;;;;;;5088628;28;20054;-71
2023/06/07 03:25:37;;;;;;;15.85;9.70;;;11.80;99.90;;;;;;5071604;28;21214;-71
2023/06/07 03:28:03;;;;;;;22.03;10.73;;;11.80;99.90;;;;;;5101848;27;20044;-71
2023/06/07 03:30:29;;;;;;;17.95;10.20;;;11.90;99.90;;;;;;5071620;28;20048;-71
2023/06/07 03:32:55;;;;;;;17.05;10.25;;;11.90;99.90;;;;;;5070551;28;20051;-71
2023/06/07 03:35:20;;;;;;;19.45;10.35;;;11.90;99.90;;;;;;5065858;28;20502;-70
2023/06/07 03:37:47;;;;;;;20.77;11.00;;;11.90;99.90;;;;;;5087683;28;20047;-70
2023/06/07 03:40:13;;;;;;;19.38;11.45;;;11.90;99.90;;;;;;5088855;28;20134;-70
2023/06/07 03:42:39;;;;;;;21.83;11.55;;;12.00;99.90;;;;;;5089931;28;21768;-72
2023/06/07 03:45:06;;;;;;;18.25;10.40;;;11.90;99.90;;;;;;5093503;28;20056;-70
2023/06/07 03:47:32;;;;;;;17.58;10.40;;;11.90;99.90;;;;;;5076163;28;20035;-71
2023/06/07 03:49:58;;;;;;;18.50;10.73;;;11.90;99.90;;;;;;5080191;28;20074;-71
2023/06/07 03:52:24;;;;;;;23.55;11.75;;;11.90;99.90;;;;;;5066923;28;20526;-71
2023/06/07 03:54:50;;;;;;;19.05;10.70;;;11.80;99.90;;;;;;5088816;28;20549;-71
2023/06/07 03:57:15;;;;;;;19.55;11.32;;;11.90;99.90;;;;;;5081725;28;20126;-70
2023/06/07 03:59:41;;;;;;;21.42;11.55;;;11.90;99.90;;;;;;5067749;28;20061;-70
2023/06/07 04:02:07;;;;;;;19.52;11.30;;;11.90;99.90;;;;;;5110646;27;20468;-70
2023/06/07 04:04:33;;;;;;;21.00;10.93;;;11.90;99.90;;;;;;5090988;28;20074;-71
2023/06/07 04:07:02;;;;;;;22.08;11.10;;;11.80;99.90;;;;;;5079712;28;21250;-71
2023/06/07 04:09:28;;;;;;;19.55;10.60;;;11.90;99.90;;;;;;5091429;28;20715;-71
2023/06/07 04:11:54;;;;;;;19.27;10.95;;;11.80;99.90;;;;;;5106784;28;20039;-71
2023/06/07 04:14:20;;;;;;;22.65;10.70;;;11.80;99.90;;;;;;5111536;28;20145;-70
2023/06/07 04:16:45;;;;;;;20.88;11.00;;;11.80;99.90;;;;;;5087441;28;20096;-71
2023/06/07 04:19:11;;;;;;;22.98;10.73;;;11.80;99.90;;;;;;5091904;28;20096;-72
2023/06/07 04:21:37;;;;;;;19.70;10.20;;;11.90;99.90;;;;;;5092843;28;20085;-71
2023/06/07 04:24:04;;;;;;;20.17;9.95;;;11.90;99.90;;;;;;5092041;28;20040;-70
2023/06/07 04:26:31;;;;;;;25.10;10.82;;;11.90;99.90;;;;;;5091192;28;20082;-71
2023/06/07 04:28:57;;;;;;;21.17;10.68;;;12.00;99.90;;;;;;5083302;28;21632;-70
2023/06/07 04:31:29;;;;;;;26.52;10.65;;;11.90;99.90;;;;;;5093974;28;20101;-71
2023/06/07 04:33:57;;;;;;;20.95;10.10;;;12.00;99.90;;;;;;5101932;28;20060;-71
2023/06/07 04:36:25;;;;;;;21.35;10.45;;;12.00;99.90;;;;;;5093902;28;20048;-70
2023/06/07 04:38:55;;;;;;;20.08;9.55;;;12.10;99.90;;;;;;5068176;28;20567;-70
2023/06/07 04:41:25;;;;;;;19.48;9.70;;;12.10;99.90;;;;;;5094050;28;20054;-71
2023/06/07 04:43:51;;;;;;;21.95;9.27;;;12.20;99.90;;;;;;5071455;28;20576;-72
2023/06/07 04:46:18;;;;;;;20.60;10.07;;;12.20;99.90;;;;;;5088270;28;20145;-71
2023/06/07 04:48:44;;;;;;;24.98;10.57;;;12.30;99.90;;;;;;5078857;28;20151;-69
2023/06/07 04:51:13;;;;;;;23.98;10.07;;;12.30;99.90;;;;;;5074355;28;20060;-71
2023/06/07 04:53:41;;;;;;;22.95;9.88;;;12.30;99.90;;;;;;5110923;28;20433;-71
2023/06/07 04:56:08;;;;;;;23.17;10.25;;;12.30;99.90;;;;;;5097183;28;20106;-70
2023/06/07 04:58:33;;;;;;;21.00;10.27;;;12.40;99.90;;;;;;5086443;28;20044;-70
2023/06/07 05:00:59;;;;;;;20.05;9.57;;;12.50;99.90;;;;;;5088513;28;20039;-70
2023/06/07 05:03:25;;;;;;;22.90;9.32;;;12.50;99.90;;;;;;5086268;28;20063;-69
2023/06/07 05:05:51;;;;;;;22.10;8.90;;;12.60;99.90;;;;;;5085826;28;20039;-69
2023/06/07 05:08:17;;;;;;;22.30;9.35;;;12.70;99.90;;;;;;5081918;28;20048;-71
2023/06/07 05:10:44;;;;;;;21.55;9.60;;;12.70;99.90;;;;;;5091832;28;20051;-69
2023/06/07 05:13:10;;;;;;;22.25;8.88;;;12.70;99.90;;;;;;5084008;28;20067;-70
2023/06/07 05:15:36;;;;;;;21.98;8.95;;;12.70;99.90;;;;;;5094182;28;20143;-69
2023/06/07 05:18:02;;;;;;;18.13;8.30;;;12.70;99.90;;;;;;5073935;28;21127;-69
2023/06/07 05:20:28;;;;;;;21.50;8.38;;;12.70;99.90;;;;;;5092318;28;20043;-69
2023/06/07 05:22:54;;;;;;;17.33;8.55;;;12.80;99.90;;;;;;5088313;28;20044;-68
2023/06/07 05:25:20;;;;;;;21.02;8.18;;;12.90;99.90;;;;;;5092400;28;20068;-69
2023/06/07 05:27:49;;;;;;;19.48;7.38;;;12.90;99.90;;;;;;5071828;28;20047;-68
2023/06/07 05:30:16;;;;;;;19.23;7.15;;;12.90;99.90;;;;;;5089377;28;21105;-68
2023/06/07 05:32:42;;;;;;;22.52;7.25;;;12.90;99.90;;;;;;5074110;28;20050;-67
2023/06/07 05:35:08;;;;;;;16.98;6.35;;;12.90;99.90;;;;;;5074327;28;20048;-68
2023/06/07 05:37:34;;;;;;;22.35;7.38;;;13.00;99.90;;;;;;5071747;28;20131;-69
2023/06/07 05:40:00;;;;;;;20.45;6.78;;;13.00;99.90;;;;;;5090384;28;20397;-69
2023/06/07 05:42:26;;;;;;;20.85;6.72;;;12.90;99.90;;;;;;5085012;28;20027;-69
2023/06/07 05:44:55;;;;;;;21.35;7.32;;;12.90;99.90;;;;;;5092003;28;20044;-69
2023/06/07 05:47:25;;;;;;;19.73;6.95;;;12.90;99.90;;;;;;5066656;28;20051;-69
2023/06/07 05:49:51;;;;;;;16.55;6.47;;;13.00;99.90;;;;;;5073731;28;20051;-68
2023/06/07 05:52:17;;;;;;;22.67;7.10;;;13.10;99.90;;;;;;5089749;28;20052;-70
2023/06/07 05:54:51;;;;;;;17.80;6.90;;;13.00;99.90;;;;;;5087651;27;22265;-70
2023/06/07 05:57:17;;;;;;;20.92;6.70;;;13.10;99.90;;;;;;5082643;28;21738;-70
2023/06/07 05:59:43;;;;;;;18.63;6.75;;;13.10;99.90;;;;;;5064638;28;20040;-69
2023/06/07 06:02:10;;;;;;;19.52;7.07;;;13.10;99.90;;;;;;5075113;28;20054;-69
2023/06/07 06:04:35;;;;;;;17.70;6.45;;;13.20;99.90;;;;;;5093017;28;20047;-70
2023/06/07 06:07:02;;;;;;;15.60;6.13;;;13.30;99.90;;;;;;5075847;28;20058;-70
2023/06/07 06:09:29;;;;;;;18.23;6.43;;;13.30;99.90;;;;;;5061544;28;20071;-69
2023/06/07 06:11:55;;;;;;;15.00;6.28;;;13.30;99.90;;;;;;5088636;28;20052;-70
2023/06/07 06:14:22;;;;;;;20.00;6.40;;;13.30;99.90;;;;;;5067909;28;20063;-68
2023/06/07 06:16:47;;;;;;;21.02;6.85;;;13.30;99.90;;;;;;5082774;28;20309;-69
2023/06/07 06:19:13;;;;;;;17.73;5.88;;;13.30;99.90;;;;;;5084328;28;20047;-70
2023/06/07 06:21:39;;;;;;;14.98;5.35;;;13.40;99.90;;;;;;5070390;28;20407;-70
2023/06/07 06:24:06;;;;;;;17.85;5.82;;;13.50;99.90;;;;;;5056457;28;20172;-70
2023/06/07 06:26:31;;;;;;;18.30;5.85;;;13.60;99.90;;;;;;5084610;28;20059;-69
2023/06/07 06:28:58;;;;;;;14.13;5.63;;;13.70;99.90;;;;;;5086727;28;20040;-70
2023/06/07 06:31:24;;;;;;;17.92;5.88;;;13.80;99.90;;;;;;5062988;28;20580;-70
2023/06/07 06:33:50;;;;;;;20.05;6.22;;;13.80;99.90;;;;;;5079441;28;20044;-70
2023/06/07 06:36:20;;;;;;;19.42;6.05;;;13.80;99.90;;;;;;5084111;28;20050;-69
2023/06/07 06:38:46;;;;;;;14.77;5.45;;;13.80;99.90;;;;;;5082640;28;20071;-71
2023/06/07 06:41:13;;;;;;;19.40;6.57;;;13.90;99.90;;;;;;5073538;28;20051;-72
2023/06/07 06:43:39;;;;;;;15.85;5.93;;;14.10;99.90;;;;;;5086367;28;20049;-73
2023/06/07 06:46:05;;;;;;;18.45;6.22;;;14.30;99.90;;;;;;5093080;28;20044;-75
2023/06/07 06:48:30;;;;;;;13.88;6.25;;;14.40;99.90;;;;;;5096113;28;20058;-74
2023/06/07 06:50:56;;;;;;;17.25;5.72;;;14.50;99.90;;;;;;5077004;28;20055;-73
2023/06/07 06:53:22;;;;;;;15.98;6.13;;;14.50;99.90;;;;;;5073039;28;20075;-73
2023/06/07 06:55:48;;;;;;;15.52;5.68;;;14.40;99.90;;;;;;5076576;28;20130;-74
2023/06/07 06:58:14;;;;;;;15.15;5.72;;;14.40;99.90;;;;;;5075039;28;20070;-72
2023/06/07 07:00:39;;;;;;;15.85;5.53;;;14.40;99.90;;;;;;5069647;28;21268;-71
2023/06/07 07:03:05;;;;;;;14.52;5.65;;;14.40;99.90;;;;;;5093573;28;20495;-69
2023/06/07 07:05:31;;;;;;;20.50;6.05;;;14.50;99.90;;;;;;5070762;28;20078;-69
2023/06/07 07:07:57;;;;;;;15.55;5.70;;;14.60;99.90;;;;;;5070257;28;20447;-70
2023/06/07 07:10:23;;;;;;;19.02;6.47;;;14.60;99.90;;;;;;5072964;28;20433;-69
2023/06/07 07:12:49;;;;;;;16.40;5.65;;;14.80;99.90;;;;;;5070460;28;20047;-68
2023/06/07 07:15:15;;;;;;;19.15;6.68;;;14.80;99.90;;;;;;5087965;28;20059;-69
2023/06/07 07:17:48;;;;;;;15.38;5.47;;;15.00;99.90;;;;;;5095756;28;20036;-69
2023/06/07 07:20:15;;;;;;;14.82;5.38;;;15.20;99.90;;;;;;5094465;28;20055;-71
2023/06/07 07:22:43;;;;;;;15.45;6.00;;;15.30;99.90;;;;;;5094174;28;20122;-72
2023/06/07 07:25:10;;;;;;;18.40;6.45;;;15.40;99.90;;;;;;5063790;28;20058;-71
2023/06/07 07:27:36;;;;;;;16.35;6.13;;;15.50;99.90;;;;;;5091895;28;20032;-71
2023/06/07 07:30:04;;;;;;;15.10;5.80;;;15.50;99.90;;;;;;5052717;28;20525;-71
2023/06/07 07:32:31;;;;;;;14.40;5.38;;;15.50;99.90;;;;;;5099211;27;20364;-72
2023/06/07 07:34:56;;;;;;;11.80;5.50;;;15.40;99.90;;;;;;5100495;27;20043;-72
2023/06/07 07:37:22;;;;;;;14.60;5.32;;;15.40;99.90;;;;;;5086419;28;20054;-71
2023/06/07 07:39:48;;;;;;;15.98;6.20;;;15.40;99.90;;;;;;5081344;28;20039;-72
2023/06/07 07:42:14;;;;;;;17.67;6.18;;;15.50;99.90;;;;;;5091675;28;20039;-72
2023/06/07 07:44:40;;;;;;;261.52;24.50;;;15.50;99.90;;;;;;5075374;28;20092;-70
2023/06/07 07:47:06;;;;;;;17.92;6.07;;;15.60;99.90;;;;;;5071518;28;20066;-71
2023/06/07 07:49:32;;;;;;;22.27;5.95;;;15.60;99.90;;;;;;5097016;27;20549;-72
2023/06/07 07:51:59;;;;;;;21.20;6.20;;;15.70;99.90;;;;;;5067911;28;20055;-71
2023/06/07 07:54:25;;;;;;;17.10;5.82;;;15.70;99.90;;;;;;5091965;28;20127;-72
2023/06/07 07:56:51;;;;;;;30.75;7.25;;;15.70;99.90;;;;;;5083999;28;20044;-71
2023/06/07 07:59:17;;;;;;;16.40;6.13;;;15.70;99.90;;;;;;5072798;28;20054;-71
2023/06/07 08:01:42;;;;;;;14.90;6.10;;;15.70;99.90;;;;;;5088666;28;20043;-70
2023/06/07 08:04:08;;;;;;;18.33;5.90;;;15.70;99.90;;;;;;5080425;28;20410;-71
2023/06/07 08:06:34;;;;;;;18.50;6.05;;;15.80;99.90;;;;;;5078167;28;20055;-71
2023/06/07 08:09:01;;;;;;;21.15;6.93;;;15.70;99.90;;;;;;5097843;28;20122;-75
2023/06/07 08:11:27;;;;;;;14.32;6.05;;;15.70;99.90;;;;;;5080180;28;20090;-74
2023/06/07 08:13:52;;;;;;;15.70;6.35;;;15.70;99.90;;;;;;5079810;28;20122;-73
2023/06/07 08:16:18;;;;;;;14.48;5.45;;;15.80;99.90;;;;;;5078483;28;20133;-74
2023/06/07 08:18:44;;;;;;;15.80;5.93;;;15.90;99.90;;;;;;5092051;28;20051;-74
2023/06/07 08:21:12;;;;;;;28.50;6.15;;;16.00;99.90;;;;;;5094206;28;20160;-75
2023/06/07 08:23:38;;;;;;;12.93;5.57;;;16.00;99.90;;;;;;5098353;28;20058;-75
2023/06/07 08:26:04;;;;;;;15.02;5.90;;;16.10;99.90;;;;;;5079120;28;20434;-75
2023/06/07 08:28:29;;;;;;;17.95;6.55;;;16.20;99.90;;;;;;5095892;28;20039;-74
2023/06/07 08:30:55;;;;;;;13.98;5.70;;;16.30;99.90;;;;;;5096875;28;20058;-77
2023/06/07 08:33:21;;;;;;;16.98;6.03;;;16.50;99.90;;;;;;5097069;28;20048;-75
2023/06/07 08:35:47;;;;;;;14.38;5.95;;;16.60;99.90;;;;;;5090326;28;20080;-74
2023/06/07 08:38:12;;;;;;;16.27;6.00;;;16.60;99.90;;;;;;5095812;28;20081;-75
2023/06/07 08:40:38;;;;;;;18.65;6.53;;;16.70;99.90;;;;;;5098058;28;20513;-76
2023/06/07 08:43:07;;;;;;;21.45;6.40;;;16.90;99.90;;;;;;5078505;28;20081;-75
2023/06/07 08:45:33;;;;;;;17.27;6.60;;;17.00;99.90;;;;;;5094590;28;20155;-75
2023/06/07 08:48:06;;;;;;;12.05;6.22;;;17.10;99.90;;;;;;5102670;28;20134;-75
2023/06/07 08:50:32;;;;;;;26.30;9.48;;;17.20;99.90;;;;;;5074970;28;20515;-75
2023/06/07 08:53:06;;;;;;;25.95;8.63;;;17.30;99.90;;;;;;5079978;28;20035;-76
2023/06/07 08:55:36;;;;;;;11.93;5.93;;;17.40;99.90;;;;;;5077038;28;20062;-75
2023/06/07 08:58:02;;;;;;;14.18;6.25;;;17.50;99.90;;;;;;5080136;28;20056;-74
2023/06/07 09:00:28;;;;;;;12.15;5.28;;;17.60;99.90;;;;;;5081629;28;20073;-75
2023/06/07 09:02:54;;;;;;;17.67;5.60;;;17.60;99.90;;;;;;5080679;28;20063;-74
2023/06/07 09:05:22;;;;;;;12.77;4.85;;;17.60;99.90;;;;;;5079672;28;20043;-76
2023/06/07 09:07:52;;;;;;;13.25;5.95;;;17.70;99.90;;;;;;5082617;28;20054;-77
2023/06/07 09:10:18;;;;;;;15.20;5.80;;;17.80;99.90;;;;;;5078252;28;20044;-75
2023/06/07 09:12:47;;;;;;;14.82;6.18;;;17.90;99.90;;;;;;5079800;28;20043;-76
2023/06/07 09:15:21;;;;;;;13.48;5.25;;;18.00;99.90;;;;;;5078178;28;20040;-74
2023/06/07 09:17:53;;;;;;;21.42;5.82;;;18.10;99.90;;;;;;5114220;27;20052;-74
2023/06/07 09:20:21;;;;;;;15.25;5.63;;;18.30;99.90;;;;;;5078477;28;20036;-76
2023/06/07 09:23:03;;;;;;;14.23;5.82;;;18.30;99.90;;;;;;5080833;28;20063;-73
2023/06/07 09:25:30;;;;;;;15.20;5.38;;;18.50;99.90;;;;;;5072188;28;20043;-75
2023/06/07 09:27:56;;;;;;;17.13;5.95;;;18.60;99.90;;;;;;5077715;28;20089;-74
2023/06/07 09:30:23;;;;;;;10.38;4.78;;;18.60;99.90;;;;;;5078161;28;20118;-75
2023/06/07 09:32:49;;;;;;;30.17;11.73;;;18.60;99.90;;;;;;5074788;28;20051;-75
2023/06/07 09:35:20;;;;;;;13.55;6.00;;;18.70;99.90;;;;;;5078718;28;20540;-76
2023/06/07 09:37:51;;;;;;;13.73;5.32;;;18.80;99.90;;;;;;5078580;28;20388;-76
2023/06/07 09:40:17;;;;;;;19.63;7.35;;;18.80;99.90;;;;;;5069880;28;20082;-75
2023/06/07 09:42:43;;;;;;;15.02;5.40;;;18.90;99.90;;;;;;5077928;28;20131;-75
2023/06/07 09:45:12;;;;;;;14.35;5.82;;;18.90;99.90;;;;;;5073897;28;20652;-74
2023/06/07 09:47:41;;;;;;;21.77;8.60;;;19.00;99.90;;;;;;5078665;28;20044;-75
2023/06/07 09:50:12;;;;;;;12.23;5.00;;;19.10;99.90;;;;;;5094303;28;20067;-72
2023/06/07 09:52:38;;;;;;;15.35;5.95;;;19.10;99.90;;;;;;5097955;28;20050;-73
2023/06/07 09:55:24;;;;;;;9.88;4.50;;;19.20;99.90;;;;;;5094330;28;20040;-73
2023/06/07 09:57:50;;;;;;;11.63;4.80;;;19.30;99.90;;;;;;5100397;28;20074;-73
2023/06/07 10:00:16;;;;;;;12.57;5.75;;;19.30;99.90;;;;;;5099937;28;20461;-73
2023/06/07 10:02:43;;;;;;;11.05;4.53;;;19.30;99.90;;;;;;5067352;28;20053;-72
2023/06/07 10:05:13;;;;;;;13.27;5.15;;;19.40;99.90;;;;;;5098033;28;20044;-72
2023/06/07 10:07:43;;;;;;;13.20;4.85;;;19.40;99.90;;;;;;5065393;28;20052;-74
2023/06/07 10:10:11;;;;;;;12.35;5.20;;;19.50;99.90;;;;;;5109743;27;20051;-74
2023/06/07 10:12:42;;;;;;;10.48;4.63;;;19.60;99.90;;;;;;5079561;28;20040;-73
2023/06/07 10:15:18;;;;;;;12.50;5.10;;;19.70;99.90;;;;;;5075627;28;20043;-71
2023/06/07 10:17:48;;;;;;;9.97;5.10;;;19.90;99.90;;;;;;5093668;28;20036;-72
2023/06/07 10:20:37;;;;;;;12.18;5.25;;;19.90;99.90;;;;;;5103898;27;20048;-74
2023/06/07 10:23:06;;;;;;;11.52;4.80;;;20.00;99.90;;;;;;5073214;28;20075;-73
2023/06/07 10:25:41;;;;;;;12.05;4.82;;;20.00;99.90;;;;;;5089505;28;20108;-71
2023/06/07 10:28:25;;;;;;;12.00;5.25;;;20.00;99.90;;;;;;5095596;28;20044;-75
2023/06/07 10:31:05;;;;;;;10.95;4.72;;;20.10;99.90;;;;;;5090336;28;20089;-73
2023/06/07 10:33:33;;;;;;;13.98;5.00;;;20.20;99.90;;;;;;5094764;28;20040;-73
2023/06/07 10:35:59;;;;;;;10.10;4.78;;;20.30;99.90;;;;;;5099145;28;20398;-72
2023/06/07 10:38:28;;;;;;;11.13;5.13;;;20.40;99.90;;;;;;5076383;28;20032;-73
2023/06/07 10:40:57;;;;;;;13.55;5.90;;;20.50;99.90;;;;;;5099808;28;20595;-74
2023/06/07 10:43:27;;;;;;;14.23;5.50;;;20.60;99.90;;;;;;5097566;28;20051;-71
2023/06/07 10:46:31;;;;;;;11.50;4.88;;;20.70;99.90;;;;;;5073548;28;20039;-71
2023/06/07 10:48:58;;;;;;;12.45;5.20;;;20.80;99.90;;;;;;5018168;28;20968;-72
2023/06/07 10:51:55;;;;;;;13.93;5.10;;;20.80;99.90;;;;;;5029048;28;20056;-72
2023/06/07 10:54:37;;;;;;;23.02;8.50;;;20.90;99.60;;;;;;5054488;28;20063;-72
2023/06/07 10:57:03;;;;;;;14.27;5.57;;;20.80;99.90;;;;;;5091809;28;20058;-71
2023/06/07 10:59:29;;;;;;;12.40;5.15;;;20.80;99.90;;;;;;5076937;28;20047;-73
2023/06/07 11:02:19;;;;;;;10.40;5.25;;;20.90;99.70;;;;;;5098326;28;20039;-73
2023/06/07 11:05:03;;;;;;;10.50;5.45;;;21.00;99.60;;;;;;5067499;28;20060;-72
2023/06/07 11:07:32;;;;;;;23.45;7.53;;;21.00;99.10;;;;;;5086000;28;20071;-72
2023/06/07 11:10:07;;;;;;;14.02;5.20;;;21.10;99.40;;;;;;5093324;28;20035;-72
2023/06/07 11:12:36;;;;;;;10.43;4.68;;;21.20;99.30;;;;;;5080401;28;20047;-72
2023/06/07 11:15:26;;;;;;;12.50;5.13;;;21.30;99.10;;;;;;5088135;28;20494;-72
2023/06/07 11:18:01;;;;;;;12.88;5.20;;;21.30;98.90;;;;;;5087553;28;20035;-71
2023/06/07 11:20:35;;;;;;;14.07;6.00;;;21.30;98.50;;;;;;5068478;28;20453;-71
2023/06/07 11:23:23;;;;;;;13.40;5.43;;;21.50;98.40;;;;;;5081791;28;20499;-72
2023/06/07 11:25:55;;;;;;;15.50;6.25;;;21.60;98.50;;;;;;5067600;28;20039;-72
2023/06/07 11:28:27;;;;;;;12.80;4.93;;;21.70;98.80;;;;;;5095646;28;20804;-72
2023/06/07 11:30:54;;;;;;;11.35;5.55;;;21.80;98.20;;;;;;5093776;28;20063;-72
2023/06/07 11:33:21;;;;;;;14.05;5.40;;;21.90;98.40;;;;;;5097998;28;20075;-72
2023/06/07 11:35:51;;;;;;;17.05;6.00;;;22.00;97.90;;;;;;5099809;28;20051;-72
2023/06/07 11:38:17;;;;;;;11.70;5.00;;;22.10;97.80;;;;;;5095649;28;20055;-74
2023/06/07 11:40:46;;;;;;;15.95;6.30;;;22.20;97.70;;;;;;5096764;28;20043;-72
2023/06/07 11:43:13;;;;;;;13.10;5.13;;;22.20;97.90;;;;;;5099253;28;20398;-71
2023/06/07 11:45:42;;;;;;;13.43;4.80;;;22.30;97.50;;;;;;5092604;28;20051;-73
2023/06/07 11:48:09;;;;;;;12.50;5.05;;;22.40;96.90;;;;;;5097320;28;20052;-72
2023/06/07 11:50:39;;;;;;;19.35;7.25;;;22.40;96.60;;;;;;5079845;28;20095;-73
2023/06/07 11:53:10;;;;;;;21.08;7.72;;;22.40;97.10;;;;;;5094957;28;20174;-73
2023/06/07 11:55:37;;;;;;;9.40;4.25;;;22.50;97.00;;;;;;5092342;28;20047;-74
2023/06/07 11:58:04;;;;;;;10.80;5.03;;;22.60;96.70;;;;;;5079706;28;20043;-72
2023/06/07 12:00:31;;;;;;;12.30;5.40;;;22.60;96.00;;;;;;5074023;28;20043;-73
2023/06/07 12:03:00;;;;;;;;;;;22.60;96.00;;;;;;5094367;28;20042;-72
2023/06/07 12:05:30;;;;;;;17.67;6.78;;;22.70;96.50;;;;;;5098550;28;19924;-71
2023/06/07 12:08:27;;;;;;;12.40;4.78;;;22.70;96.20;;;;;;5067490;28;20070;-71
2023/06/07 12:10:54;;;;;;;10.68;5.00;;;22.80;96.00;;;;;;5063821;28;20056;-69
2023/06/07 12:13:21;;;;;;;14.07;4.63;;;22.90;95.30;;;;;;5088183;28;20868;-70
2023/06/07 12:15:48;;;;;;;9.23;4.60;;;23.00;95.50;;;;;;5068682;28;20050;-70
2023/06/07 12:18:15;;;;;;;10.48;4.28;;;23.10;95.20;;;;;;5107541;27;20073;-70
2023/06/07 12:20:42;;;;;;;9.93;4.50;;;23.10;94.80;;;;;;5080375;28;20101;-70
2023/06/07 12:23:08;;;;;;;;;;;23.10;94.70;;;;;;5087073;28;20040;-69
2023/06/07 12:25:34;;;;;;;9.07;4.30;;;23.20;95.40;;;;;;5071824;28;20166;-70
2023/06/07 12:28:09;;;;;;;10.85;4.28;;;23.20;94.60;;;;;;5074199;28;20252;-71
2023/06/07 12:30:37;;;;;;;8.52;4.60;;;23.30;94.90;;;;;;5083069;28;20709;-69
2023/06/07 12:33:03;;;;;;;11.38;4.30;;;23.40;94.80;;;;;;5082567;28;20048;-69
2023/06/07 12:35:38;;;;;;;12.00;5.10;;;23.50;94.40;;;;;;5096676;28;20051;-70
2023/06/07 12:38:04;;;;;;;34.30;7.13;;;23.60;94.20;;;;;;5101656;28;20443;-71
2023/06/07 12:40:30;;;;;;;13.65;4.88;;;23.60;93.70;;;;;;5101758;28;20566;-70